createdAt,value
2023-10-20T00:02:31.182Z,8.00
2023-10-20T00:06:33.049Z,5.72
2023-10-20T00:10:38.230Z,8.85
2023-10-20T00:14:40.315Z,8.43
2023-10-20T00:18:42.086Z,9.83
2023-10-20T00:22:43.899Z,7.03
2023-10-20T00:26:45.636Z,6.38
2023-10-20T00:30:47.613Z,6.35
2023-10-20T00:34:49.313Z,5.70
2023-10-20T00:38:51.114Z,7.50
2023-10-20T00:42:53.079Z,7.35
2023-10-20T00:46:55.031Z,8.03
2023-10-20T00:50:56.799Z,7.63
2023-10-20T00:54:59.919Z,11.88
2023-10-20T00:59:01.684Z,15.00
2023-10-20T01:03:03.802Z,7.95
2023-10-20T01:07:05.804Z,9.93
2023-10-20T01:11:07.656Z,9.55
2023-10-20T01:15:11.326Z,7.18
2023-10-20T01:19:13.312Z,9.75
2023-10-20T01:23:15.383Z,10.07
2023-10-20T01:27:17.697Z,11.23
2023-10-20T01:31:19.450Z,13.45
2023-10-20T01:35:21.429Z,9.10
2023-10-20T01:39:23.182Z,7.67
2023-10-20T01:43:24.960Z,8.15
2023-10-20T01:47:26.828Z,9.00
2023-10-20T01:51:28.602Z,7.13
2023-10-20T01:55:30.373Z,13.57
2023-10-20T01:59:32.272Z,8.23
2023-10-20T02:03:34.552Z,12.33
2023-10-20T02:07:37.406Z,10.27
2023-10-20T02:11:39.125Z,10.32
2023-10-20T02:15:48.299Z,9.55
2023-10-20T02:19:50.155Z,15.13
2023-10-20T02:23:52.028Z,9.60
2023-10-20T02:27:54.814Z,9.18
2023-10-20T02:31:58.227Z,8.05
2023-10-20T02:35:59.967Z,8.67
2023-10-20T02:40:06.116Z,8.77
2023-10-20T02:44:10.026Z,10.23
2023-10-20T02:48:11.944Z,9.70
2023-10-20T02:52:14.618Z,8.18
2023-10-20T02:56:18.796Z,8.25
2023-10-20T03:00:22.648Z,7.80
2023-10-20T03:04:25.251Z,6.82
2023-10-20T03:08:27.187Z,6.82
2023-10-20T03:12:29.065Z,7.95
2023-10-20T03:16:30.913Z,8.65
2023-10-20T03:20:34.478Z,9.30
2023-10-20T03:24:37.439Z,8.10
2023-10-20T03:28:40.463Z,10.23
2023-10-20T03:32:42.678Z,8.52
2023-10-20T03:36:47.967Z,7.70
2023-10-20T03:40:49.673Z,6.82
2023-10-20T03:44:51.652Z,8.07
2023-10-20T03:48:53.685Z,8.00
2023-10-20T03:52:56.293Z,7.82
2023-10-20T03:56:59.418Z,5.47
2023-10-20T04:01:04.005Z,6.32
2023-10-20T04:05:07.314Z,5.93
2023-10-20T04:09:13.118Z,5.75
2023-10-20T04:13:14.883Z,6.30
2023-10-20T04:17:17.434Z,6.38
2023-10-20T04:21:19.328Z,6.55
2023-10-20T04:25:22.999Z,6.53
2023-10-20T04:29:25.376Z,6.03
2023-10-20T04:33:46.096Z,6.72
2023-10-20T04:38:06.661Z,9.65
2023-10-20T04:42:26.805Z,9.02
2023-10-20T04:46:47.165Z,7.07
2023-10-20T04:51:19.737Z,9.43
2023-10-20T04:55:27.494Z,7.53
2023-10-20T04:59:32.914Z,7.88
2023-10-20T05:03:47.414Z,9.73
2023-10-20T05:07:51.921Z,7.97
2023-10-20T05:11:54.722Z,8.65
2023-10-20T05:19:58.305Z,7.70
2023-10-20T05:24:05.034Z,9.57
2023-10-20T05:28:08.604Z,9.38
2023-10-20T05:32:10.345Z,8.30
2023-10-20T05:36:12.114Z,8.38
2023-10-20T05:40:14.716Z,9.07
2023-10-20T05:44:19.028Z,10.40
2023-10-20T05:48:21.232Z,10.90
2023-10-20T05:52:23.168Z,9.93
2023-10-20T05:56:24.979Z,10.98
2023-10-20T06:00:26.730Z,13.43
2023-10-20T06:04:28.805Z,13.27
2023-10-20T06:08:31.648Z,18.80
2023-10-20T06:16:35.160Z,15.85
2023-10-20T06:20:40.867Z,16.43
2023-10-20T06:24:42.656Z,16.63
2023-10-20T06:28:46.291Z,22.08
2023-10-20T06:32:57.889Z,17.52
2023-10-20T06:37:22.474Z,18.73
2023-10-20T06:41:24.287Z,24.13
2023-10-20T06:45:26.062Z,22.25
2023-10-20T06:49:29.309Z,23.23
2023-10-20T06:53:31.230Z,24.50
2023-10-20T06:57:33.384Z,25.00
2023-10-20T07:01:35.197Z,27.43
2023-10-20T07:05:39.030Z,28.05
2023-10-20T07:09:45.714Z,23.45
2023-10-20T07:13:47.780Z,27.60
2023-10-20T07:17:50.184Z,21.25
2023-10-20T07:21:55.392Z,24.55
2023-10-20T07:25:58.227Z,25.08
2023-10-20T07:34:03.433Z,22.02
2023-10-20T07:38:05.704Z,20.33
2023-10-20T07:42:08.094Z,27.85
2023-10-20T07:46:19.220Z,25.00
2023-10-20T07:50:21.050Z,24.13
2023-10-20T07:54:22.901Z,24.43
2023-10-20T07:58:24.630Z,18.05
2023-10-20T08:02:26.501Z,17.00
2023-10-20T08:06:28.828Z,16.73
2023-10-20T08:10:31.374Z,14.98
2023-10-20T08:14:35.307Z,14.55
2023-10-20T08:18:37.599Z,16.20
2023-10-20T08:22:39.661Z,14.27
2023-10-20T08:26:42.444Z,15.07
2023-10-20T08:30:44.241Z,15.57
2023-10-20T08:34:46.116Z,15.27
2023-10-20T08:38:50.212Z,14.50
2023-10-20T08:42:53.010Z,17.42
2023-10-20T08:50:59.449Z,18.90
2023-10-20T08:55:02.211Z,18.08
2023-10-20T08:59:04.952Z,17.80
2023-10-20T09:03:06.745Z,18.17
2023-10-20T09:07:15.566Z,16.55
2023-10-20T09:11:19.637Z,16.92
2023-10-20T09:15:21.719Z,18.40
2023-10-20T09:19:24.266Z,17.55
2023-10-20T09:23:26.179Z,19.83
2023-10-20T09:27:28.284Z,15.27
2023-10-20T09:31:30.174Z,13.07
2023-10-20T09:35:33.105Z,17.50
2023-10-20T09:39:39.731Z,19.40
2023-10-20T09:44:03.978Z,14.57
2023-10-20T09:48:20.120Z,16.50
2023-10-20T09:52:22.775Z,13.65
2023-10-20T09:56:24.992Z,22.87
2023-10-20T10:00:35.273Z,12.13
2023-10-20T10:04:41.388Z,11.93
2023-10-20T10:08:45.204Z,11.27
2023-10-20T10:12:59.626Z,10.52
2023-10-20T10:17:02.740Z,9.73
2023-10-20T10:21:05.396Z,11.20
2023-10-20T10:25:07.410Z,14.10
2023-10-20T10:29:09.489Z,16.00
2023-10-20T10:33:14.987Z,18.58
2023-10-20T10:37:26.810Z,18.45
2023-10-20T10:41:29.167Z,16.05
2023-10-20T10:45:35.670Z,19.15
2023-10-20T10:49:47.027Z,16.23
2023-10-20T10:53:48.882Z,16.92
2023-10-20T10:57:52.323Z,15.77
2023-10-20T11:01:54.813Z,17.85
2023-10-20T11:05:57.328Z,15.77
2023-10-20T11:10:06.070Z,14.20
2023-10-20T11:14:08.893Z,13.95
2023-10-20T11:18:14.607Z,12.13
2023-10-20T11:22:20.050Z,10.65
2023-10-20T11:26:24.892Z,9.18
2023-10-20T11:30:35.966Z,11.13
2023-10-20T11:34:38.314Z,8.43
2023-10-20T11:38:40.175Z,7.18
2023-10-20T11:42:41.965Z,8.63
2023-10-20T11:46:44.867Z,9.43
2023-10-20T11:50:48.149Z,6.03
2023-10-20T11:54:50.282Z,6.25
2023-10-20T11:58:52.020Z,5.65
2023-10-20T12:02:53.888Z,5.90
2023-10-20T12:06:55.920Z,6.43
2023-10-20T12:10:58.309Z,4.80
2023-10-20T12:15:01.805Z,5.70
2023-10-20T12:19:05.414Z,6.97
2023-10-20T12:23:07.497Z,5.70
2023-10-20T12:27:13.112Z,3.88
2023-10-20T12:31:17.182Z,7.20
2023-10-20T12:35:19.093Z,5.55
2023-10-20T12:39:21.858Z,4.57
2023-10-20T12:47:25.383Z,7.82
2023-10-20T12:51:27.142Z,6.50
2023-10-20T12:55:28.885Z,4.72
2023-10-20T12:59:30.821Z,4.75
2023-10-20T13:03:32.723Z,4.87
2023-10-20T13:07:34.533Z,3.87
2023-10-20T13:11:36.298Z,4.32
2023-10-20T13:15:38.083Z,4.10
2023-10-20T13:19:40.388Z,5.38
2023-10-20T13:23:42.422Z,7.00
2023-10-20T13:27:44.211Z,3.40
2023-10-20T13:31:46.108Z,3.20
2023-10-20T13:35:47.873Z,2.60
2023-10-20T13:39:49.975Z,2.47
2023-10-20T13:43:53.205Z,2.92
2023-10-20T13:47:55.356Z,3.50
2023-10-20T13:51:57.588Z,5.50
2023-10-20T13:55:59.302Z,3.05
2023-10-20T14:00:01.113Z,1.88
2023-10-20T14:04:09.953Z,2.20
2023-10-20T14:08:13.035Z,1.05
2023-10-20T14:12:15.818Z,2.78
2023-10-20T14:16:17.967Z,1.33
2023-10-20T14:20:19.865Z,1.30
2023-10-20T14:24:22.122Z,1.30
2023-10-20T14:28:24.983Z,0.32
2023-10-20T14:32:26.804Z,0.43
2023-10-20T14:36:28.587Z,0.30
2023-10-20T14:40:30.330Z,0.60
2023-10-20T14:44:32.308Z,0.40
2023-10-20T14:48:35.206Z,1.70
2023-10-20T14:52:37.101Z,0.38
2023-10-20T14:56:38.903Z,3.33
2023-10-20T15:00:48.474Z,0.73
2023-10-20T15:04:50.547Z,4.70
2023-10-20T15:08:52.407Z,0.20
2023-10-20T15:12:54.193Z,0.68
2023-10-20T15:16:58.228Z,0.55
2023-10-20T15:21:00.412Z,0.40
2023-10-20T15:25:02.238Z,0.30
2023-10-20T15:29:05.159Z,1.02
2023-10-20T15:33:08.754Z,0.88
2023-10-20T15:37:10.880Z,0.30
2023-10-20T15:41:15.885Z,0.35
2023-10-20T15:45:19.925Z,0.32
2023-10-20T15:49:22.732Z,0.77
2023-10-20T15:53:24.582Z,1.40
2023-10-20T15:57:26.480Z,1.93
2023-10-20T16:01:29.613Z,0.85
2023-10-20T16:05:32.040Z,1.30
2023-10-20T16:09:34.054Z,2.30
2023-10-20T16:13:35.996Z,3.05
2023-10-20T16:17:37.806Z,2.75
2023-10-20T16:21:39.629Z,2.28
2023-10-20T16:25:41.410Z,1.63
2023-10-20T16:29:43.169Z,2.38
2023-10-20T16:33:45.062Z,2.72
2023-10-20T16:37:46.937Z,1.73
2023-10-20T16:41:48.868Z,7.30
2023-10-20T16:45:51.479Z,1.98
2023-10-20T16:49:53.288Z,1.85
2023-10-20T16:53:55.053Z,1.17
2023-10-20T16:57:56.927Z,1.30
2023-10-20T17:01:58.699Z,3.53
2023-10-20T17:06:07.161Z,4.30
2023-10-20T17:10:09.411Z,7.32
2023-10-20T17:14:11.461Z,4.43
2023-10-20T17:18:13.420Z,5.20
2023-10-20T17:22:15.219Z,4.87
2023-10-20T17:26:16.981Z,5.20
2023-10-20T17:30:19.033Z,6.30
2023-10-20T17:34:21.064Z,4.73
2023-10-20T17:38:22.798Z,4.43
2023-10-20T17:42:24.496Z,2.90
2023-10-20T17:46:26.178Z,2.45
2023-10-20T17:50:27.993Z,2.28
2023-10-20T17:54:29.843Z,2.67
2023-10-20T17:58:31.780Z,3.25
2023-10-20T18:02:35.142Z,2.40
2023-10-20T18:06:36.974Z,1.50
2023-10-20T18:10:42.790Z,1.15
2023-10-20T18:14:45.704Z,1.80
2023-10-20T18:18:49.780Z,2.63
2023-10-20T18:22:51.646Z,4.22
2023-10-20T18:26:53.384Z,3.72
2023-10-20T18:30:56.345Z,9.90
2023-10-20T18:38:59.784Z,1.77
2023-10-20T18:43:02.088Z,3.85
2023-10-20T18:47:04.587Z,3.50
2023-10-20T18:51:10.882Z,2.95
2023-10-20T18:55:13.796Z,2.65
2023-10-20T18:59:16.432Z,2.78
2023-10-20T19:03:18.752Z,4.50
2023-10-20T19:07:20.559Z,4.07
2023-10-20T19:11:22.337Z,6.45
2023-10-20T19:15:25.107Z,1.98
2023-10-20T19:19:27.213Z,3.13
2023-10-20T19:23:29.248Z,2.03
2023-10-20T19:27:31.166Z,3.33
2023-10-20T19:31:33.324Z,2.15
2023-10-20T19:35:35.111Z,1.33
2023-10-20T19:39:37.615Z,2.08
2023-10-20T19:43:39.361Z,3.20
2023-10-20T19:47:41.226Z,1.08
2023-10-20T19:51:43.773Z,2.88
2023-10-20T19:55:48.691Z,4.30
2023-10-20T19:59:50.744Z,2.65
2023-10-20T20:03:52.537Z,1.53
2023-10-20T20:07:55.547Z,2.95
2023-10-20T20:11:58.248Z,1.83
2023-10-20T20:16:13.526Z,2.90
2023-10-20T20:20:15.406Z,4.40
2023-10-20T20:24:17.158Z,0.95
2023-10-20T20:28:18.948Z,1.02
2023-10-20T20:32:20.718Z,1.75
2023-10-20T20:36:22.546Z,3.22
2023-10-20T20:40:24.232Z,1.17
2023-10-20T20:44:26.114Z,3.05
2023-10-20T20:48:28.358Z,0.70
2023-10-20T20:52:30.272Z,0.65
2023-10-20T20:56:31.997Z,0.65
2023-10-20T21:00:33.886Z,1.27
2023-10-20T21:04:36.324Z,0.57
2023-10-20T21:08:38.208Z,1.55
2023-10-20T21:12:39.936Z,2.78
2023-10-20T21:16:42.052Z,2.45
2023-10-20T21:20:45.476Z,3.28
2023-10-20T21:24:47.529Z,1.15
2023-10-20T21:28:49.254Z,2.37
2023-10-20T21:32:51.104Z,1.13
2023-10-20T21:36:52.878Z,1.93
2023-10-20T21:40:58.339Z,0.90
2023-10-20T21:45:00.150Z,1.88
2023-10-20T21:49:02.015Z,2.05
2023-10-20T21:53:03.936Z,2.08
2023-10-20T21:57:05.840Z,1.73
2023-10-20T22:01:10.418Z,3.88
2023-10-20T22:05:13.284Z,1.67
2023-10-20T22:09:15.060Z,4.28
2023-10-20T22:13:17.482Z,0.93
2023-10-20T22:17:19.204Z,1.08
2023-10-20T22:21:21.003Z,3.92
2023-10-20T22:25:23.045Z,1.50
2023-10-20T22:29:26.551Z,1.33
2023-10-20T22:33:28.344Z,2.30
2023-10-20T22:37:30.147Z,3.85
2023-10-20T22:41:31.814Z,1.02
2023-10-20T22:45:33.504Z,3.83
2023-10-20T22:49:35.338Z,3.58
2023-10-20T22:53:37.336Z,2.33
2023-10-20T22:57:39.107Z,3.78
2023-10-20T23:01:40.906Z,4.38
2023-10-20T23:05:42.699Z,2.15
2023-10-20T23:09:44.443Z,1.70
2023-10-20T23:13:46.229Z,2.85
2023-10-20T23:17:48.146Z,2.88
2023-10-20T23:21:49.912Z,1.77
2023-10-20T23:25:51.638Z,1.45
2023-10-20T23:29:53.564Z,0.85
2023-10-20T23:33:55.702Z,2.03
2023-10-20T23:37:57.690Z,3.33
2023-10-20T23:42:02.127Z,4.72
2023-10-20T23:46:04.036Z,3.08
2023-10-20T23:50:07.236Z,2.97
2023-10-20T23:54:08.967Z,2.15
2023-10-20T23:58:10.716Z,2.15
